sensor_id;sensor_type;location;lat;lon;timestamp;pressure;altitude;pressure_sealevel;temperature;humidity
68871;BME280;55906;52.278;6.808;2023-03-16T00:01:14;101756.00;;;5.23;53.89
68871;BME280;55906;52.278;6.808;2023-03-16T00:03:41;101760.97;;;5.20;53.93
68871;BME280;55906;52.278;6.808;2023-03-16T00:06:08;101756.69;;;5.20;53.45
68871;BME280;55906;52.278;6.808;2023-03-16T00:08:34;101754.88;;;5.19;53.88
68871;BME280;55906;52.278;6.808;2023-03-16T00:11:02;101749.47;;;5.16;54.31
68871;BME280;55906;52.278;6.808;2023-03-16T00:13:29;101749.56;;;5.18;54.60
68871;BME280;55906;52.278;6.808;2023-03-16T00:15:59;101746.94;;;5.18;54.38
68871;BME280;55906;52.278;6.808;2023-03-16T00:18:28;101739.94;;;5.17;54.87
68871;BME280;55906;52.278;6.808;2023-03-16T00:20:56;101739.03;;;5.16;54.67
68871;BME280;55906;52.278;6.808;2023-03-16T00:23:23;101739.75;;;5.13;54.90
68871;BME280;55906;52.278;6.808;2023-03-16T00:25:52;101729.59;;;5.18;54.63
68871;BME280;55906;52.278;6.808;2023-03-16T00:28:20;101732.19;;;5.18;54.83
68871;BME280;55906;52.278;6.808;2023-03-16T00:30:47;101744.44;;;5.19;54.48
68871;BME280;55906;52.278;6.808;2023-03-16T00:33:15;101734.91;;;5.20;54.85
68871;BME280;55906;52.278;6.808;2023-03-16T00:35:45;101740.25;;;5.21;54.78
68871;BME280;55906;52.278;6.808;2023-03-16T00:38:14;101740.94;;;5.19;54.89
68871;BME280;55906;52.278;6.808;2023-03-16T00:40:41;101740.94;;;5.19;54.86
68871;BME280;55906;52.278;6.808;2023-03-16T00:43:07;101748.75;;;5.19;54.93
68871;BME280;55906;52.278;6.808;2023-03-16T00:45:34;101750.38;;;5.17;55.30
68871;BME280;55906;52.278;6.808;2023-03-16T00:48:00;101749.06;;;5.23;54.96
68871;BME280;55906;52.278;6.808;2023-03-16T00:50:28;101751.59;;;5.22;55.33
68871;BME280;55906;52.278;6.808;2023-03-16T00:52:55;101751.66;;;5.23;55.25
68871;BME280;55906;52.278;6.808;2023-03-16T00:55:22;101749.16;;;5.25;55.51
68871;BME280;55906;52.278;6.808;2023-03-16T00:57:48;101745.66;;;5.24;55.58
68871;BME280;55906;52.278;6.808;2023-03-16T01:00:16;101737.81;;;5.24;55.26
68871;BME280;55906;52.278;6.808;2023-03-16T01:02:45;101737.91;;;5.26;54.81
68871;BME280;55906;52.278;6.808;2023-03-16T01:05:12;101740.53;;;5.26;55.69
68871;BME280;55906;52.278;6.808;2023-03-16T01:07:41;101719.66;;;5.26;55.58
68871;BME280;55906;52.278;6.808;2023-03-16T01:10:10;101717.16;;;5.27;56.00
68871;BME280;55906;52.278;6.808;2023-03-16T01:12:37;101710.13;;;5.26;56.07
68871;BME280;55906;52.278;6.808;2023-03-16T01:15:04;101697.91;;;5.25;55.78
68871;BME280;55906;52.278;6.808;2023-03-16T01:17:31;101706.91;;;5.30;55.81
68871;BME280;55906;52.278;6.808;2023-03-16T01:19:59;101700.59;;;5.27;56.03
68871;BME280;55906;52.278;6.808;2023-03-16T01:22:26;101695.47;;;5.28;56.11
68871;BME280;55906;52.278;6.808;2023-03-16T01:24:54;101702.56;;;5.31;56.04
68871;BME280;55906;52.278;6.808;2023-03-16T01:27:20;101688.53;;;5.29;55.71
68871;BME280;55906;52.278;6.808;2023-03-16T01:29:50;101689.44;;;5.29;55.96
68871;BME280;55906;52.278;6.808;2023-03-16T01:32:16;101687.81;;;5.31;56.09
68871;BME280;55906;52.278;6.808;2023-03-16T01:34:43;101685.13;;;5.30;56.13
68871;BME280;55906;52.278;6.808;2023-03-16T01:37:10;101686.13;;;5.32;56.04
68871;BME280;55906;52.278;6.808;2023-03-16T01:39:36;101686.94;;;5.31;56.12
68871;BME280;55906;52.278;6.808;2023-03-16T01:42:05;101676.31;;;5.28;56.02
68871;BME280;55906;52.278;6.808;2023-03-16T01:44:50;101675.59;;;5.30;56.14
68871;BME280;55906;52.278;6.808;2023-03-16T01:47:17;101672.91;;;5.29;56.01
68871;BME280;55906;52.278;6.808;2023-03-16T01:49:44;101675.31;;;5.26;55.72
68871;BME280;55906;52.278;6.808;2023-03-16T01:52:14;101668.13;;;5.22;55.84
68871;BME280;55906;52.278;6.808;2023-03-16T01:54:45;101671.09;;;5.28;55.83
68871;BME280;55906;52.278;6.808;2023-03-16T01:57:16;101676.13;;;5.25;55.92
68871;BME280;55906;52.278;6.808;2023-03-16T01:59:48;101665.97;;;5.29;55.85
68871;BME280;55906;52.278;6.808;2023-03-16T02:02:20;101669.19;;;5.25;56.23
68871;BME280;55906;52.278;6.808;2023-03-16T02:04:49;101670.28;;;5.29;55.90
68871;BME280;55906;52.278;6.808;2023-03-16T02:07:21;101670.28;;;5.29;56.40
68871;BME280;55906;52.278;6.808;2023-03-16T02:09:51;101661.38;;;5.25;55.92
68871;BME280;55906;52.278;6.808;2023-03-16T02:12:20;101670.00;;;5.24;56.13
68871;BME280;55906;52.278;6.808;2023-03-16T02:14:49;101664.25;;;5.30;56.27
68871;BME280;55906;52.278;6.808;2023-03-16T02:17:18;101644.66;;;5.22;56.03
68871;BME280;55906;52.278;6.808;2023-03-16T02:19:52;101650.75;;;5.22;56.61
68871;BME280;55906;52.278;6.808;2023-03-16T02:22:22;101652.38;;;5.20;56.64
68871;BME280;55906;52.278;6.808;2023-03-16T02:24:50;101649.16;;;5.24;56.78
68871;BME280;55906;52.278;6.808;2023-03-16T02:27:24;101640.59;;;5.27;56.75
68871;BME280;55906;52.278;6.808;2023-03-16T02:30:05;101636.81;;;5.22;56.77
68871;BME280;55906;52.278;6.808;2023-03-16T02:32:34;101623.88;;;5.23;56.80
68871;BME280;55906;52.278;6.808;2023-03-16T02:35:02;101614.84;;;5.18;56.93
68871;BME280;55906;52.278;6.808;2023-03-16T02:37:30;101620.97;;;5.19;57.06
68871;BME280;55906;52.278;6.808;2023-03-16T02:39:58;101613.03;;;5.17;57.02
68871;BME280;55906;52.278;6.808;2023-03-16T02:42:25;101624.28;;;5.16;56.92
68871;BME280;55906;52.278;6.808;2023-03-16T02:44:55;101615.66;;;5.17;56.95
68871;BME280;55906;52.278;6.808;2023-03-16T02:47:29;101611.34;;;5.18;56.86
68871;BME280;55906;52.278;6.808;2023-03-16T02:49:58;101614.75;;;5.17;57.21
68871;BME280;55906;52.278;6.808;2023-03-16T02:52:26;101602.69;;;5.19;57.50
68871;BME280;55906;52.278;6.808;2023-03-16T02:54:53;101595.50;;;5.14;57.87
68871;BME280;55906;52.278;6.808;2023-03-16T02:57:19;101598.91;;;5.13;57.55
68871;BME280;55906;52.278;6.808;2023-03-16T02:59:46;101600.91;;;5.18;57.67
68871;BME280;55906;52.278;6.808;2023-03-16T03:02:13;101589.31;;;5.12;57.87
68871;BME280;55906;52.278;6.808;2023-03-16T03:04:41;101590.09;;;5.11;57.59
68871;BME280;55906;52.278;6.808;2023-03-16T03:07:11;101591.81;;;5.11;57.93
68871;BME280;55906;52.278;6.808;2023-03-16T03:09:38;101585.78;;;5.12;57.94
68871;BME280;55906;52.278;6.808;2023-03-16T03:12:06;101586.88;;;5.15;57.79
68871;BME280;55906;52.278;6.808;2023-03-16T03:14:33;101583.28;;;5.13;57.92
68871;BME280;55906;52.278;6.808;2023-03-16T03:17:02;101586.59;;;5.11;57.98
68871;BME280;55906;52.278;6.808;2023-03-16T03:19:29;101580.56;;;5.12;58.04
68871;BME280;55906;52.278;6.808;2023-03-16T03:21:57;101576.44;;;5.15;57.83
68871;BME280;55906;52.278;6.808;2023-03-16T03:24:23;101577.06;;;5.11;58.51
68871;BME280;55906;52.278;6.808;2023-03-16T03:26:52;101582.47;;;5.14;57.89
68871;BME280;55906;52.278;6.808;2023-03-16T03:29:19;101581.16;;;5.21;57.89
68871;BME280;55906;52.278;6.808;2023-03-16T03:31:45;101582.94;;;5.22;58.06
68871;BME280;55906;52.278;6.808;2023-03-16T03:34:12;101575.72;;;5.18;58.34
68871;BME280;55906;52.278;6.808;2023-03-16T03:36:39;101573.41;;;5.23;57.84
68871;BME280;55906;52.278;6.808;2023-03-16T03:39:07;101570.81;;;5.23;58.08
68871;BME280;55906;52.278;6.808;2023-03-16T03:41:33;101571.78;;;5.25;57.94
68871;BME280;55906;52.278;6.808;2023-03-16T03:44:00;101575.13;;;5.22;58.57
68871;BME280;55906;52.278;6.808;2023-03-16T03:46:27;101568.09;;;5.21;58.09
68871;BME280;55906;52.278;6.808;2023-03-16T03:48:53;101564.59;;;5.21;58.48
68871;BME280;55906;52.278;6.808;2023-03-16T03:51:20;101561.19;;;5.22;58.37
68871;BME280;55906;52.278;6.808;2023-03-16T03:53:47;101565.59;;;5.23;58.74
68871;BME280;55906;52.278;6.808;2023-03-16T03:56:15;101559.66;;;5.25;58.46
68871;BME280;55906;52.278;6.808;2023-03-16T03:58:41;101566.59;;;5.25;58.65
68871;BME280;55906;52.278;6.808;2023-03-16T04:01:08;101554.53;;;5.27;58.48
68871;BME280;55906;52.278;6.808;2023-03-16T04:03:34;101550.03;;;5.24;59.44
68871;BME280;55906;52.278;6.808;2023-03-16T04:06:01;101549.03;;;5.22;58.70
68871;BME280;55906;52.278;6.808;2023-03-16T04:08:28;101551.03;;;5.26;59.10
68871;BME280;55906;52.278;6.808;2023-03-16T04:10:54;101544.28;;;5.30;58.29
68871;BME280;55906;52.278;6.808;2023-03-16T04:13:22;101537.25;;;5.29;59.22
68871;BME280;55906;52.278;6.808;2023-03-16T04:15:55;101530.06;;;5.25;58.81
68871;BME280;55906;52.278;6.808;2023-03-16T04:18:21;101530.88;;;5.24;58.76
68871;BME280;55906;52.278;6.808;2023-03-16T04:20:48;101522.25;;;5.25;59.02
68871;BME280;55906;52.278;6.808;2023-03-16T04:23:17;101527.47;;;5.25;59.02
68871;BME280;55906;52.278;6.808;2023-03-16T04:25:44;101524.94;;;5.26;59.00
68871;BME280;55906;52.278;6.808;2023-03-16T04:28:11;101522.97;;;5.22;58.68
68871;BME280;55906;52.278;6.808;2023-03-16T04:30:39;101529.06;;;5.23;59.47
68871;BME280;55906;52.278;6.808;2023-03-16T04:33:07;101527.28;;;5.22;59.10
68871;BME280;55906;52.278;6.808;2023-03-16T04:35:33;101525.84;;;5.27;58.82
68871;BME280;55906;52.278;6.808;2023-03-16T04:38:00;101533.84;;;5.30;59.08
68871;BME280;55906;52.278;6.808;2023-03-16T04:40:27;101523.31;;;5.28;58.91
68871;BME280;55906;52.278;6.808;2023-03-16T04:42:54;101522.31;;;5.26;58.85
68871;BME280;55906;52.278;6.808;2023-03-16T04:45:21;101533.84;;;5.30;58.77
68871;BME280;55906;52.278;6.808;2023-03-16T04:47:49;101530.25;;;5.28;58.72
68871;BME280;55906;52.278;6.808;2023-03-16T04:50:16;101529.44;;;5.29;58.99
68871;BME280;55906;52.278;6.808;2023-03-16T04:52:43;101527.53;;;5.26;58.90
68871;BME280;55906;52.278;6.808;2023-03-16T04:55:09;101526.00;;;5.30;58.59
68871;BME280;55906;52.278;6.808;2023-03-16T04:57:36;101519.97;;;5.31;59.10
68871;BME280;55906;52.278;6.808;2023-03-16T05:00:04;101518.09;;;5.28;59.01
68871;BME280;55906;52.278;6.808;2023-03-16T05:02:35;101514.59;;;5.28;59.22
68871;BME280;55906;52.278;6.808;2023-03-16T05:05:04;101521.34;;;5.24;58.65
68871;BME280;55906;52.278;6.808;2023-03-16T05:07:31;101509.72;;;5.19;59.05
68871;BME280;55906;52.278;6.808;2023-03-16T05:09:58;101507.00;;;5.18;59.17
68871;BME280;55906;52.278;6.808;2023-03-16T05:12:24;101509.72;;;5.19;59.15
68871;BME280;55906;52.278;6.808;2023-03-16T05:14:51;101503.59;;;5.19;59.30
68871;BME280;55906;52.278;6.808;2023-03-16T05:17:17;101495.78;;;5.19;59.56
68871;BME280;55906;52.278;6.808;2023-03-16T05:19:44;101510.53;;;5.18;59.20
68871;BME280;55906;52.278;6.808;2023-03-16T05:22:12;101504.50;;;5.19;59.72
68871;BME280;55906;52.278;6.808;2023-03-16T05:24:40;101495.59;;;5.15;59.83
68871;BME280;55906;52.278;6.808;2023-03-16T05:27:06;101486.78;;;5.13;59.61
68871;BME280;55906;52.278;6.808;2023-03-16T05:29:33;101488.69;;;5.16;59.61
68871;BME280;55906;52.278;6.808;2023-03-16T05:32:00;101493.81;;;5.14;59.61
68871;BME280;55906;52.278;6.808;2023-03-16T05:34:26;101487.34;;;5.08;59.95
68871;BME280;55906;52.278;6.808;2023-03-16T05:36:53;101495.25;;;5.09;59.99
68871;BME280;55906;52.278;6.808;2023-03-16T05:39:21;101501.53;;;5.13;59.55
68871;BME280;55906;52.278;6.808;2023-03-16T05:41:48;101499.66;;;5.10;60.03
68871;BME280;55906;52.278;6.808;2023-03-16T05:44:15;101510.16;;;5.12;59.79
68871;BME280;55906;52.278;6.808;2023-03-16T05:46:41;101510.88;;;5.09;60.24
68871;BME280;55906;52.278;6.808;2023-03-16T05:49:10;101499.66;;;5.10;59.76
68871;BME280;55906;52.278;6.808;2023-03-16T05:51:37;101497.84;;;5.09;59.93
68871;BME280;55906;52.278;6.808;2023-03-16T05:54:04;101504.16;;;5.13;59.98
68871;BME280;55906;52.278;6.808;2023-03-16T05:56:32;101502.34;;;5.12;59.89
68871;BME280;55906;52.278;6.808;2023-03-16T05:58:58;101501.63;;;5.14;60.16
68871;BME280;55906;52.278;6.808;2023-03-16T06:01:25;101495.41;;;5.12;60.27
68871;BME280;55906;52.278;6.808;2023-03-16T06:03:52;101494.63;;;5.13;60.18
68871;BME280;55906;52.278;6.808;2023-03-16T06:06:20;101490.22;;;5.12;60.14
68871;BME280;55906;52.278;6.808;2023-03-16T06:08:47;101496.41;;;5.14;60.25
68871;BME280;55906;52.278;6.808;2023-03-16T06:11:14;101500.00;;;5.17;59.95
68871;BME280;55906;52.278;6.808;2023-03-16T06:13:42;101508.13;;;5.21;59.99
68871;BME280;55906;52.278;6.808;2023-03-16T06:16:09;101509.72;;;5.19;59.72
68871;BME280;55906;52.278;6.808;2023-03-16T06:18:38;101512.78;;;5.27;59.59
68871;BME280;55906;52.278;6.808;2023-03-16T06:21:05;101512.25;;;5.32;59.88
68871;BME280;55906;52.278;6.808;2023-03-16T06:23:32;101509.56;;;5.31;59.76
68871;BME280;55906;52.278;6.808;2023-03-16T06:25:59;101501.97;;;5.35;59.49
68871;BME280;55906;52.278;6.808;2023-03-16T06:28:26;101509.09;;;5.38;59.76
68871;BME280;55906;52.278;6.808;2023-03-16T06:30:55;101501.59;;;5.44;59.23
68871;BME280;55906;52.278;6.808;2023-03-16T06:33:22;101499.09;;;5.45;59.22
68871;BME280;55906;52.278;6.808;2023-03-16T06:35:49;101499.78;;;5.58;58.97
68871;BME280;55906;52.278;6.808;2023-03-16T06:38:16;101495.09;;;5.52;59.79
68871;BME280;55906;52.278;6.808;2023-03-16T06:40:43;101492.13;;;5.61;59.62
68871;BME280;55906;52.278;6.808;2023-03-16T06:43:10;101488.03;;;5.66;58.72
68871;BME280;55906;52.278;6.808;2023-03-16T06:45:36;101484.72;;;5.68;58.97
68871;BME280;55906;52.278;6.808;2023-03-16T06:48:05;101476.22;;;5.72;59.24
68871;BME280;55906;52.278;6.808;2023-03-16T06:50:34;101480.81;;;5.76;58.58
68871;BME280;55906;52.278;6.808;2023-03-16T06:53:01;101479.34;;;5.82;58.91
68871;BME280;55906;52.278;6.808;2023-03-16T06:55:27;101473.31;;;5.83;59.01
68871;BME280;55906;52.278;6.808;2023-03-16T06:57:54;101478.59;;;5.84;59.07
68871;BME280;55906;52.278;6.808;2023-03-16T07:00:21;101473.56;;;5.87;58.54
68871;BME280;55906;52.278;6.808;2023-03-16T07:02:48;101489.50;;;5.92;58.80
68871;BME280;55906;52.278;6.808;2023-03-16T07:05:16;101480.03;;;5.94;58.84
68871;BME280;55906;52.278;6.808;2023-03-16T07:07:43;101487.22;;;5.98;59.13
68871;BME280;55906;52.278;6.808;2023-03-16T07:10:11;101490.97;;;6.03;58.89
68871;BME280;55906;52.278;6.808;2023-03-16T07:12:38;101489.50;;;6.08;58.80
68871;BME280;55906;52.278;6.808;2023-03-16T07:15:05;101484.53;;;6.13;58.12
68871;BME280;55906;52.278;6.808;2023-03-16T07:17:32;101487.22;;;6.14;58.40
68871;BME280;55906;52.278;6.808;2023-03-16T07:19:58;101495.56;;;6.23;58.24
68871;BME280;55906;52.278;6.808;2023-03-16T07:22:31;101498.25;;;6.25;57.64
68871;BME280;55906;52.278;6.808;2023-03-16T07:24:58;101494.25;;;6.31;58.19
68871;BME280;55906;52.278;6.808;2023-03-16T07:27:24;101497.75;;;6.32;57.99
68871;BME280;55906;52.278;6.808;2023-03-16T07:29:51;101499.56;;;6.33;57.87
68871;BME280;55906;52.278;6.808;2023-03-16T07:32:18;101494.41;;;6.34;57.48
68871;BME280;55906;52.278;6.808;2023-03-16T07:34:44;101490.25;;;6.38;58.22
68871;BME280;55906;52.278;6.808;2023-03-16T07:37:11;101485.50;;;6.47;57.41
68871;BME280;55906;52.278;6.808;2023-03-16T07:39:39;101484.88;;;6.51;57.56
68871;BME280;55906;52.278;6.808;2023-03-16T07:42:06;101494.75;;;6.57;57.64
68871;BME280;55906;52.278;6.808;2023-03-16T07:44:33;101498.34;;;6.59;57.67
68871;BME280;55906;52.278;6.808;2023-03-16T07:47:00;101492.59;;;6.66;57.97
68871;BME280;55906;52.278;6.808;2023-03-16T07:49:26;101490.69;;;6.80;57.85
68871;BME280;55906;52.278;6.808;2023-03-16T07:51:53;101489.38;;;6.88;57.94
68871;BME280;55906;52.278;6.808;2023-03-16T07:54:20;101492.22;;;6.92;57.46
68871;BME280;55906;52.278;6.808;2023-03-16T07:56:49;101498.66;;;6.99;57.45
68871;BME280;55906;52.278;6.808;2023-03-16T07:59:16;101493.94;;;7.10;56.74
68871;BME280;55906;52.278;6.808;2023-03-16T08:01:44;101492.09;;;7.25;56.86
68871;BME280;55906;52.278;6.808;2023-03-16T08:04:11;101495.00;;;7.31;56.47
68871;BME280;55906;52.278;6.808;2023-03-16T08:06:38;101489.47;;;7.43;56.68
68871;BME280;55906;52.278;6.808;2023-03-16T08:09:04;101494.63;;;7.59;55.82
68871;BME280;55906;52.278;6.808;2023-03-16T08:11:31;101489.81;;;7.68;56.43
68871;BME280;55906;52.278;6.808;2023-03-16T08:13:59;101488.44;;;7.76;55.21
68871;BME280;55906;52.278;6.808;2023-03-16T08:16:26;101504.91;;;7.74;55.57
68871;BME280;55906;52.278;6.808;2023-03-16T08:18:55;101501.53;;;7.76;55.19
68871;BME280;55906;52.278;6.808;2023-03-16T08:21:22;101487.41;;;7.72;56.14
68871;BME280;55906;52.278;6.808;2023-03-16T08:23:49;101503.19;;;7.74;55.95
68871;BME280;55906;52.278;6.808;2023-03-16T08:26:16;101514.34;;;7.70;56.27
68871;BME280;55906;52.278;6.808;2023-03-16T08:28:44;101508.06;;;7.66;55.75
68871;BME280;55906;52.278;6.808;2023-03-16T08:31:13;101511.13;;;7.76;56.34
68871;BME280;55906;52.278;6.808;2023-03-16T08:33:40;101508.22;;;7.87;56.51
68871;BME280;55906;52.278;6.808;2023-03-16T08:36:09;101506.72;;;7.92;56.04
68871;BME280;55906;52.278;6.808;2023-03-16T08:38:37;101505.13;;;7.96;56.22
68871;BME280;55906;52.278;6.808;2023-03-16T08:41:05;101500.84;;;7.98;55.34
68871;BME280;55906;52.278;6.808;2023-03-16T08:43:32;101505.47;;;8.03;54.97
68871;BME280;55906;52.278;6.808;2023-03-16T08:45:58;101509.16;;;8.07;54.88
68871;BME280;55906;52.278;6.808;2023-03-16T08:48:27;101509.28;;;8.10;55.84
68871;BME280;55906;52.278;6.808;2023-03-16T08:50:54;101507.09;;;8.19;55.46
68871;BME280;55906;52.278;6.808;2023-03-16T08:53:21;101510.25;;;8.12;55.44
68871;BME280;55906;52.278;6.808;2023-03-16T08:55:48;101502.38;;;8.12;55.41
68871;BME280;55906;52.278;6.808;2023-03-16T08:58:14;101512.72;;;8.09;55.50
68871;BME280;55906;52.278;6.808;2023-03-16T09:00:41;101513.50;;;8.07;55.88
68871;BME280;55906;52.278;6.808;2023-03-16T09:03:08;101512.38;;;8.01;56.15
68871;BME280;55906;52.278;6.808;2023-03-16T09:05:36;101511.63;;;8.04;56.27
68871;BME280;55906;52.278;6.808;2023-03-16T09:08:03;101510.50;;;7.99;56.24
68871;BME280;55906;52.278;6.808;2023-03-16T09:10:30;101515.00;;;8.01;56.52
68871;BME280;55906;52.278;6.808;2023-03-16T09:12:57;101506.38;;;8.04;56.95
68871;BME280;55906;52.278;6.808;2023-03-16T09:15:24;101498.59;;;8.06;57.33
68871;BME280;55906;52.278;6.808;2023-03-16T09:17:51;101512.38;;;8.01;57.70
68871;BME280;55906;52.278;6.808;2023-03-16T09:20:18;101510.38;;;7.96;58.01
68871;BME280;55906;52.278;6.808;2023-03-16T09:22:47;101517.41;;;7.97;60.39
68871;BME280;55906;52.278;6.808;2023-03-16T09:25:13;101518.84;;;7.90;60.89
68871;BME280;55906;52.278;6.808;2023-03-16T09:27:40;101505.81;;;7.92;62.04
68871;BME280;55906;52.278;6.808;2023-03-16T09:30:08;101506.72;;;7.92;62.01
68871;BME280;55906;52.278;6.808;2023-03-16T09:32:35;101500.97;;;7.82;63.21
68871;BME280;55906;52.278;6.808;2023-03-16T09:35:03;101497.34;;;7.80;63.80
68871;BME280;55906;52.278;6.808;2023-03-16T09:37:30;101494.72;;;7.80;64.42
68871;BME280;55906;52.278;6.808;2023-03-16T09:39:58;101488.16;;;7.88;64.19
68871;BME280;55906;52.278;6.808;2023-03-16T09:42:29;101482.94;;;7.88;65.54
68871;BME280;55906;52.278;6.808;2023-03-16T09:45:07;101477.81;;;7.91;65.45
68871;BME280;55906;52.278;6.808;2023-03-16T09:47:36;101489.41;;;7.96;65.77
68871;BME280;55906;52.278;6.808;2023-03-16T09:50:07;101475.22;;;7.91;66.36
68871;BME280;55906;52.278;6.808;2023-03-16T09:52:41;101483.50;;;8.00;66.67
68871;BME280;55906;52.278;6.808;2023-03-16T09:55:20;101480.19;;;8.04;66.14
68871;BME280;55906;52.278;6.808;2023-03-16T09:57:51;101472.31;;;8.04;65.36
68871;BME280;55906;52.278;6.808;2023-03-16T10:00:20;101481.34;;;8.11;64.82
68871;BME280;55906;52.278;6.808;2023-03-16T10:05:39;101475.22;;;8.29;64.24
68871;BME280;55906;52.278;6.808;2023-03-16T10:08:12;101475.47;;;8.34;64.51
68871;BME280;55906;52.278;6.808;2023-03-16T10:10:54;101478.28;;;8.39;62.98
68871;BME280;55906;52.278;6.808;2023-03-16T10:13:29;101463.03;;;8.49;64.71
68871;BME280;55906;52.278;6.808;2023-03-16T10:16:01;101459.19;;;8.62;64.35
68871;BME280;55906;52.278;6.808;2023-03-16T10:18:32;101460.56;;;8.73;64.22
68871;BME280;55906;52.278;6.808;2023-03-16T10:21:04;101456.41;;;8.78;63.60
68871;BME280;55906;52.278;6.808;2023-03-16T10:23:33;101446.94;;;8.82;62.80
68871;BME280;55906;52.278;6.808;2023-03-16T10:26:05;101454.41;;;8.93;63.30
68871;BME280;55906;52.278;6.808;2023-03-16T10:28:37;101450.13;;;8.95;63.00
68871;BME280;55906;52.278;6.808;2023-03-16T10:31:04;101448.00;;;9.08;62.72
68871;BME280;55906;52.278;6.808;2023-03-16T10:33:33;101442.63;;;9.05;61.49
68871;BME280;55906;52.278;6.808;2023-03-16T10:36:04;101442.94;;;9.11;61.65
68871;BME280;55906;52.278;6.808;2023-03-16T10:38:40;101429.53;;;9.05;60.92
68871;BME280;55906;52.278;6.808;2023-03-16T10:41:20;101436.00;;;9.13;60.76
68871;BME280;55906;52.278;6.808;2023-03-16T10:43:50;101432.16;;;9.25;61.08
68871;BME280;55906;52.278;6.808;2023-03-16T10:46:17;101413.19;;;9.33;60.04
68871;BME280;55906;52.278;6.808;2023-03-16T10:48:53;101408.81;;;9.33;60.17
68871;BME280;55906;52.278;6.808;2023-03-16T10:51:25;101394.84;;;9.34;59.75
68871;BME280;55906;52.278;6.808;2023-03-16T10:53:56;101398.13;;;9.28;59.67
68871;BME280;55906;52.278;6.808;2023-03-16T10:56:32;101400.81;;;9.30;59.76
68871;BME280;55906;52.278;6.808;2023-03-16T10:58:59;101401.00;;;9.35;59.47
68871;BME280;55906;52.278;6.808;2023-03-16T11:01:28;101392.28;;;9.36;59.59
68871;BME280;55906;52.278;6.808;2023-03-16T11:03:56;101391.69;;;9.43;59.13
68871;BME280;55906;52.278;6.808;2023-03-16T11:06:25;101402.25;;;9.44;59.39
68871;BME280;55906;52.278;6.808;2023-03-16T11:09:02;101398.09;;;9.49;58.46
68871;BME280;55906;52.278;6.808;2023-03-16T11:11:32;101400.47;;;9.43;58.29
68871;BME280;55906;52.278;6.808;2023-03-16T11:14:01;101401.25;;;9.41;58.42
68871;BME280;55906;52.278;6.808;2023-03-16T11:16:30;101400.53;;;9.45;58.48
68871;BME280;55906;52.278;6.808;2023-03-16T11:19:04;101398.91;;;9.48;58.00
68871;BME280;55906;52.278;6.808;2023-03-16T11:21:41;101391.88;;;9.47;57.87
68871;BME280;55906;52.278;6.808;2023-03-16T11:24:15;101388.59;;;9.53;57.71
68871;BME280;55906;52.278;6.808;2023-03-16T11:26:47;101390.63;;;9.60;57.46
68871;BME280;55906;52.278;6.808;2023-03-16T11:29:22;101389.06;;;9.65;56.90
68871;BME280;55906;52.278;6.808;2023-03-16T11:31:52;101400.34;;;9.62;57.76
68871;BME280;55906;52.278;6.808;2023-03-16T11:34:28;101398.19;;;9.75;57.58
68871;BME280;55906;52.278;6.808;2023-03-16T11:37:00;101383.31;;;9.75;57.29
68871;BME280;55906;52.278;6.808;2023-03-16T11:39:32;101386.34;;;9.86;57.11
68871;BME280;55906;52.278;6.808;2023-03-16T11:42:18;101374.41;;;9.95;55.92
68871;BME280;55906;52.278;6.808;2023-03-16T11:44:50;101351.66;;;9.96;55.62
68871;BME280;55906;52.278;6.808;2023-03-16T11:47:50;101348.63;;;10.09;54.81
68871;BME280;55906;52.278;6.808;2023-03-16T11:50:27;101355.47;;;10.28;54.31
68871;BME280;55906;52.278;6.808;2023-03-16T11:53:00;101349.34;;;10.53;54.63
68871;BME280;55906;52.278;6.808;2023-03-16T11:55:35;101339.81;;;10.83;54.00
68871;BME280;55906;52.278;6.808;2023-03-16T11:58:23;101332.59;;;11.05;52.79
68871;BME280;55906;52.278;6.808;2023-03-16T12:00:58;101317.44;;;11.26;52.41
68871;BME280;55906;52.278;6.808;2023-03-16T12:03:48;101314.34;;;11.39;51.30
68871;BME280;55906;52.278;6.808;2023-03-16T12:09:30;101311.59;;;11.66;51.25
68871;BME280;55906;52.278;6.808;2023-03-16T12:12:02;101313.94;;;11.84;51.11
68871;BME280;55906;52.278;6.808;2023-03-16T12:14:37;101303.72;;;11.96;50.24
68871;BME280;55906;52.278;6.808;2023-03-16T12:17:10;101310.38;;;12.15;49.15
68871;BME280;55906;52.278;6.808;2023-03-16T12:19:40;101309.09;;;12.34;48.59
68871;BME280;55906;52.278;6.808;2023-03-16T12:22:15;101307.47;;;12.39;48.70
68871;BME280;55906;52.278;6.808;2023-03-16T12:24:44;101284.63;;;12.39;48.75
68871;BME280;55906;52.278;6.808;2023-03-16T12:27:14;101282.47;;;12.59;47.66
68871;BME280;55906;52.278;6.808;2023-03-16T12:29:51;101270.91;;;12.54;47.80
68871;BME280;55906;52.278;6.808;2023-03-16T12:32:29;101272.81;;;12.60;48.33
68871;BME280;55906;52.278;6.808;2023-03-16T12:35:02;101272.38;;;12.41;48.23
68871;BME280;55906;52.278;6.808;2023-03-16T12:37:36;101267.75;;;12.33;48.38
68871;BME280;55906;52.278;6.808;2023-03-16T12:40:20;101258.81;;;12.28;48.44
68871;BME280;55906;52.278;6.808;2023-03-16T12:43:17;101251.63;;;12.21;48.45
68871;BME280;55906;52.278;6.808;2023-03-16T12:45:57;101250.59;;;12.15;48.21
68871;BME280;55906;52.278;6.808;2023-03-16T12:48:29;101255.44;;;11.99;48.96
68871;BME280;55906;52.278;6.808;2023-03-16T12:50:59;101257.72;;;11.85;49.24
68871;BME280;55906;52.278;6.808;2023-03-16T12:53:28;101257.56;;;11.79;49.31
68871;BME280;55906;52.278;6.808;2023-03-16T12:56:05;101253.19;;;11.79;48.65
68871;BME280;55906;52.278;6.808;2023-03-16T12:58:33;101253.41;;;11.59;49.17
68871;BME280;55906;52.278;6.808;2023-03-16T13:01:01;101239.44;;;11.61;48.98
68871;BME280;55906;52.278;6.808;2023-03-16T13:03:28;101247.16;;;11.55;49.68
68871;BME280;55906;52.278;6.808;2023-03-16T13:05:57;101246.09;;;11.48;49.05
68871;BME280;55906;52.278;6.808;2023-03-16T13:08:25;101238.44;;;11.58;48.61
68871;BME280;55906;52.278;6.808;2023-03-16T13:11:00;101230.38;;;11.51;48.29
68871;BME280;55906;52.278;6.808;2023-03-16T13:13:27;101227.03;;;11.57;48.66
68871;BME280;55906;52.278;6.808;2023-03-16T13:16:04;101214.81;;;11.61;47.79